Time;durP1;ratioP1;P1;durP2;ratioP2;P2;SDS_P1;SDS_P2;PMS_P1;PMS_P2;Temp;Humidity;BMP_temperature;BMP_pressure;BME280_temperature;BME280_humidity;BME280_pressure;Samples;Min_cycle;Max_cycle;Signal;HPM_P1;HPM_P2
2023/05/19 00:02:07;;;;;;;11.93;5.32;;;9.10;99.90;;;;;;5128026;27;20055;-54
2023/05/19 00:04:35;;;;;;;13.00;6.10;;;9.10;99.90;;;;;;5114624;27;20532;-54
2023/05/19 00:07:04;;;;;;;9.48;5.50;;;9.10;99.90;;;;;;5135116;27;20035;-54
2023/05/19 00:09:31;;;;;;;10.82;5.50;;;9.10;99.90;;;;;;5126784;27;20123;-54
2023/05/19 00:11:58;;;;;;;13.23;5.82;;;9.10;99.90;;;;;;5121745;27;20047;-56
2023/05/19 00:14:25;;;;;;;10.82;6.20;;;9.00;99.90;;;;;;5121660;27;20050;-54
2023/05/19 00:16:52;;;;;;;12.05;5.90;;;9.00;99.90;;;;;;5133858;27;20071;-54
2023/05/19 00:19:18;;;;;;;12.00;5.68;;;8.90;99.90;;;;;;5119647;27;20036;-54
2023/05/19 00:21:45;;;;;;;8.27;5.35;;;8.90;99.90;;;;;;5124391;27;20058;-55
2023/05/19 00:24:12;;;;;;;12.07;5.50;;;8.90;99.90;;;;;;5128230;27;20063;-54
2023/05/19 00:26:39;;;;;;;17.85;6.13;;;8.90;99.90;;;;;;5123498;27;20051;-55
2023/05/19 00:29:06;;;;;;;12.63;5.88;;;8.80;99.90;;;;;;5116075;27;20050;-54
2023/05/19 00:31:33;;;;;;;12.88;6.50;;;8.90;99.90;;;;;;5106549;28;20046;-55
2023/05/19 00:34:00;;;;;;;15.90;6.75;;;8.80;99.90;;;;;;5122428;27;20043;-54
2023/05/19 00:36:27;;;;;;;15.27;6.13;;;8.80;99.90;;;;;;5129316;27;20039;-54
2023/05/19 00:38:54;;;;;;;;;;;8.80;99.90;;;;;;5112960;27;20415;-56
2023/05/19 00:41:21;;;;;;;13.00;5.95;;;8.80;99.90;;;;;;5102155;28;19920;-55
2023/05/19 00:43:49;;;;;;;15.05;6.40;;;8.80;99.90;;;;;;5105147;27;20508;-55
2023/05/19 00:46:17;;;;;;;15.27;6.32;;;8.80;99.90;;;;;;5114296;27;20043;-56
2023/05/19 00:48:44;;;;;;;14.95;6.93;;;8.80;99.90;;;;;;5116808;27;20039;-56
2023/05/19 00:51:15;;;;;;;15.38;6.63;;;8.80;99.90;;;;;;5134100;27;20393;-54
2023/05/19 00:53:47;;;;;;;12.90;6.90;;;8.70;99.90;;;;;;5105671;28;20047;-54
2023/05/19 00:56:17;;;;;;;17.30;7.53;;;8.70;99.90;;;;;;5121569;27;20120;-54
2023/05/19 00:58:45;;;;;;;13.05;7.00;;;8.70;99.90;;;;;;5108866;27;20046;-55
2023/05/19 01:01:13;;;;;;;;;;;8.70;99.90;;;;;;5108507;28;20472;-54
2023/05/19 01:03:42;;;;;;;13.90;6.90;;;8.60;99.90;;;;;;5103026;28;19919;-54
2023/05/19 01:06:10;;;;;;;14.60;6.57;;;8.60;99.90;;;;;;5113356;27;20067;-54
2023/05/19 01:08:38;;;;;;;19.58;7.60;;;8.60;99.90;;;;;;5113012;28;20035;-54
2023/05/19 01:11:06;;;;;;;13.23;7.20;;;8.50;99.90;;;;;;5124970;27;20031;-54
2023/05/19 01:13:34;;;;;;;17.92;7.30;;;8.50;99.90;;;;;;5113615;27;20483;-55
2023/05/19 01:16:29;;;;;;;18.40;8.50;;;8.50;99.90;;;;;;5128361;27;20047;-54
2023/05/19 01:19:35;;;;;;;21.33;7.68;;;8.50;99.90;;;;;;5119320;27;20062;-55
2023/05/19 01:22:26;;;;;;;20.33;7.75;;;8.50;99.90;;;;;;5111905;28;20082;-56
2023/05/19 01:25:05;;;;;;;17.40;8.20;;;8.50;99.90;;;;;;5087309;27;20047;-54
2023/05/19 01:28:10;;;;;;;15.25;7.43;;;8.50;99.90;;;;;;5114844;27;20090;-55
2023/05/19 01:30:44;;;;;;;16.40;7.80;;;8.50;99.90;;;;;;5094203;28;20498;-56
2023/05/19 01:33:15;;;;;;;15.48;7.20;;;8.50;99.90;;;;;;5093866;28;20039;-55
2023/05/19 01:35:44;;;;;;;15.80;7.90;;;8.50;99.90;;;;;;5111056;27;20135;-54
2023/05/19 01:38:14;;;;;;;18.33;6.97;;;8.50;99.90;;;;;;5102361;28;20123;-54
2023/05/19 01:40:42;;;;;;;15.40;7.22;;;8.50;99.90;;;;;;5102163;28;20137;-55
2023/05/19 01:43:13;;;;;;;12.70;7.07;;;8.50;99.90;;;;;;5113931;27;20410;-54
2023/05/19 01:45:41;;;;;;;12.13;7.38;;;8.40;99.90;;;;;;5102445;28;20040;-57
2023/05/19 01:48:08;;;;;;;18.25;7.32;;;8.40;99.90;;;;;;5101676;28;20553;-54
2023/05/19 01:50:39;;;;;;;13.73;6.63;;;8.40;99.90;;;;;;5109482;27;20756;-57
2023/05/19 01:53:06;;;;;;;15.90;6.90;;;8.30;99.90;;;;;;5102166;28;20039;-54
2023/05/19 01:55:40;;;;;;;15.95;7.82;;;8.40;99.90;;;;;;5101854;27;20117;-57
2023/05/19 01:58:36;;;;;;;14.55;7.63;;;8.30;99.90;;;;;;5120153;27;20054;-54
2023/05/19 02:01:18;;;;;;;16.70;7.97;;;8.30;99.90;;;;;;5104857;27;20093;-56
2023/05/19 02:03:57;;;;;;;18.88;7.93;;;8.30;99.90;;;;;;5110615;27;20043;-55
2023/05/19 02:06:40;;;;;;;20.65;8.90;;;8.30;99.90;;;;;;5102358;28;20142;-54
2023/05/19 02:09:24;;;;;;;18.98;7.68;;;8.30;99.90;;;;;;5124600;27;20032;-55
2023/05/19 02:12:01;;;;;;;15.35;7.65;;;8.30;99.90;;;;;;5111304;28;20104;-55
2023/05/19 02:14:37;;;;;;;16.17;7.72;;;8.30;99.90;;;;;;5105539;27;20051;-54
2023/05/19 02:17:05;;;;;;;20.13;7.88;;;8.30;99.90;;;;;;5108830;28;20040;-55
2023/05/19 02:19:35;;;;;;;15.75;8.13;;;8.40;99.90;;;;;;5101074;28;20047;-54
2023/05/19 02:22:02;;;;;;;16.00;7.32;;;8.40;99.90;;;;;;5105089;28;20051;-56
2023/05/19 02:24:29;;;;;;;17.85;7.97;;;8.40;99.90;;;;;;5113215;28;20046;-54
2023/05/19 02:26:58;;;;;;;17.35;7.60;;;8.40;99.90;;;;;;5105583;28;20523;-54
2023/05/19 02:29:25;;;;;;;21.10;8.25;;;8.40;99.90;;;;;;5114030;28;20047;-56
2023/05/19 02:31:52;;;;;;;17.00;8.50;;;8.40;99.90;;;;;;5101553;28;20046;-55
2023/05/19 02:34:19;;;;;;;18.45;8.32;;;8.40;99.90;;;;;;5117241;28;20428;-54
2023/05/19 02:36:48;;;;;;;17.48;8.30;;;8.40;99.90;;;;;;5105082;28;20051;-54
2023/05/19 02:39:15;;;;;;;22.40;8.65;;;8.40;99.90;;;;;;5132570;28;20487;-57
2023/05/19 02:41:42;;;;;;;14.00;8.07;;;8.40;99.90;;;;;;5102965;28;20050;-54
2023/05/19 02:44:09;;;;;;;17.35;7.18;;;8.50;99.90;;;;;;5101139;28;20036;-54
2023/05/19 02:46:36;;;;;;;13.70;7.07;;;8.50;99.90;;;;;;5100499;28;20065;-55
2023/05/19 02:49:03;;;;;;;15.38;7.70;;;8.50;99.90;;;;;;5112986;28;20059;-54
2023/05/19 02:51:29;;;;;;;21.73;8.23;;;8.50;99.90;;;;;;5123146;28;20385;-54
2023/05/19 02:53:56;;;;;;;18.35;7.43;;;8.50;99.90;;;;;;5129217;28;20047;-56
2023/05/19 02:56:23;;;;;;;14.02;7.38;;;8.50;99.90;;;;;;5111820;28;20462;-53
2023/05/19 02:58:51;;;;;;;17.67;7.75;;;8.50;99.90;;;;;;5104864;28;20069;-54
2023/05/19 03:01:20;;;;;;;16.25;7.72;;;8.60;99.90;;;;;;5099713;28;20056;-54
2023/05/19 03:03:47;;;;;;;17.02;7.43;;;8.50;99.90;;;;;;5105195;28;20051;-55
2023/05/19 03:06:16;;;;;;;11.35;7.43;;;8.50;99.90;;;;;;5109215;28;20046;-54
2023/05/19 03:08:43;;;;;;;20.50;8.40;;;8.40;99.90;;;;;;5119815;28;20063;-53
2023/05/19 03:11:10;;;;;;;20.08;8.13;;;8.40;99.90;;;;;;5109393;28;20073;-54
2023/05/19 03:13:37;;;;;;;17.75;7.80;;;8.50;99.90;;;;;;5113334;28;20066;-54
2023/05/19 03:16:06;;;;;;;17.90;7.68;;;8.50;99.90;;;;;;5108501;28;20040;-55
2023/05/19 03:18:34;;;;;;;19.25;7.68;;;8.50;99.90;;;;;;5111586;28;20059;-54
2023/05/19 03:21:00;;;;;;;13.32;7.40;;;8.50;99.90;;;;;;5112053;28;20079;-55
2023/05/19 03:23:27;;;;;;;15.48;7.45;;;8.50;99.90;;;;;;5112692;28;20135;-55
2023/05/19 03:25:55;;;;;;;22.90;7.88;;;8.40;99.90;;;;;;5113289;28;20040;-55
2023/05/19 03:28:22;;;;;;;16.10;7.80;;;8.50;99.90;;;;;;5105020;28;20041;-55
2023/05/19 03:30:49;;;;;;;17.73;7.60;;;8.50;99.90;;;;;;5112393;27;20567;-55
2023/05/19 03:33:18;;;;;;;22.88;8.38;;;8.50;99.90;;;;;;5104530;28;20039;-57
2023/05/19 03:35:45;;;;;;;12.80;6.68;;;8.50;99.90;;;;;;5130612;27;20053;-55
2023/05/19 03:38:13;;;;;;;18.67;6.82;;;8.50;99.90;;;;;;5109013;27;20503;-54
2023/05/19 03:40:47;;;;;;;15.25;7.50;;;8.50;99.90;;;;;;5106162;27;20047;-55
2023/05/19 03:43:15;;;;;;;13.25;7.00;;;8.50;99.90;;;;;;5108980;27;20043;-53
2023/05/19 03:45:48;;;;;;;14.68;6.93;;;8.50;99.90;;;;;;5103105;27;20146;-54
2023/05/19 03:48:34;;;;;;;17.50;7.38;;;8.50;99.90;;;;;;5129570;27;20135;-54
2023/05/19 03:51:21;;;;;;;13.50;6.88;;;8.60;99.90;;;;;;5132640;27;20066;-54
2023/05/19 03:53:51;;;;;;;14.30;6.50;;;8.60;99.90;;;;;;5102597;27;20074;-54
2023/05/19 03:56:19;;;;;;;18.60;7.55;;;8.60;99.90;;;;;;5108147;27;20134;-54
2023/05/19 03:58:48;;;;;;;20.00;7.70;;;8.60;99.90;;;;;;5113125;27;20055;-54
2023/05/19 04:01:15;;;;;;;19.58;7.80;;;8.70;99.90;;;;;;5114509;27;20126;-55
2023/05/19 04:03:42;;;;;;;11.65;7.18;;;8.70;99.90;;;;;;5108271;28;20043;-55
2023/05/19 04:06:09;;;;;;;16.05;7.18;;;8.70;99.90;;;;;;5130402;27;20040;-54
2023/05/19 04:08:36;;;;;;;20.70;7.28;;;8.70;99.90;;;;;;5114657;28;20047;-55
2023/05/19 04:11:03;;;;;;;11.45;7.03;;;8.70;99.90;;;;;;5103399;28;20519;-54
2023/05/19 04:13:32;;;;;;;10.77;6.72;;;8.70;99.90;;;;;;5095797;28;20456;-54
2023/05/19 04:15:59;;;;;;;13.50;7.10;;;8.70;99.90;;;;;;5114728;27;20049;-55
2023/05/19 04:18:26;;;;;;;;;;;8.70;99.90;;;;;;5135412;27;20047;-54
2023/05/19 04:20:55;;;;;;;13.05;7.53;;;8.70;99.90;;;;;;5113772;27;19966;-54
2023/05/19 04:23:21;;;;;;;19.20;7.32;;;8.80;99.90;;;;;;5105620;28;20036;-53
2023/05/19 04:25:48;;;;;;;14.38;7.40;;;8.80;99.90;;;;;;5113996;27;20035;-56
2023/05/19 04:28:16;;;;;;;17.70;6.90;;;8.80;99.90;;;;;;5116186;27;20050;-53
2023/05/19 04:30:45;;;;;;;11.35;6.88;;;8.80;99.90;;;;;;5117140;27;20047;-54
2023/05/19 04:33:12;;;;;;;18.92;7.40;;;8.80;99.90;;;;;;5103431;28;20054;-53
2023/05/19 04:35:39;;;;;;;16.33;7.50;;;8.80;99.90;;;;;;5110475;27;20054;-54
2023/05/19 04:38:08;;;;;;;16.15;7.28;;;8.80;99.90;;;;;;5114326;27;20035;-54
2023/05/19 04:40:36;;;;;;;14.95;7.57;;;8.80;99.90;;;;;;5108866;28;20039;-54
2023/05/19 04:43:03;;;;;;;18.38;8.55;;;8.80;99.90;;;;;;5111613;27;20047;-55
2023/05/19 04:45:31;;;;;;;13.43;7.38;;;8.80;99.90;;;;;;5114583;27;20036;-54
2023/05/19 04:48:00;;;;;;;19.92;8.32;;;8.80;99.90;;;;;;5098685;27;20073;-57
2023/05/19 04:50:29;;;;;;;;;;;8.90;99.90;;;;;;5134195;27;20039;-55
2023/05/19 04:52:58;;;;;;;17.58;7.90;;;8.90;99.90;;;;;;5112538;27;19920;-55
2023/05/19 04:55:25;;;;;;;15.50;7.63;;;9.00;99.90;;;;;;5105302;27;20051;-54
2023/05/19 04:57:52;;;;;;;18.08;8.23;;;9.00;99.90;;;;;;5107007;27;20043;-54
2023/05/19 05:00:20;;;;;;;16.92;7.35;;;9.10;99.90;;;;;;5101361;27;20047;-54
2023/05/19 05:02:57;;;;;;;15.02;7.53;;;9.20;99.90;;;;;;5105948;28;20047;-54
2023/05/19 05:05:27;;;;;;;21.17;8.45;;;9.20;99.90;;;;;;5111505;27;20035;-54
2023/05/19 05:07:54;;;;;;;14.07;6.78;;;9.30;99.90;;;;;;5094135;27;20122;-54
2023/05/19 05:10:23;;;;;;;13.90;7.07;;;9.30;99.90;;;;;;5107739;27;20423;-53
2023/05/19 05:12:50;;;;;;;;;;;9.40;99.90;;;;;;5106532;27;20031;-54
2023/05/19 05:15:17;;;;;;;16.42;6.93;;;9.30;99.90;;;;;;5108902;27;19943;-54
2023/05/19 05:17:47;;;;;;;17.80;7.05;;;9.30;99.90;;;;;;5104024;27;20129;-54
2023/05/19 05:20:15;;;;;;;17.27;7.63;;;9.30;99.90;;;;;;5106069;27;20456;-54
2023/05/19 05:22:42;;;;;;;18.35;7.57;;;9.30;99.90;;;;;;5123206;27;20122;-57
2023/05/19 05:25:12;;;;;;;14.77;6.63;;;9.30;99.90;;;;;;5107245;27;20361;-54
2023/05/19 05:27:39;;;;;;;12.45;6.90;;;9.30;99.90;;;;;;5106017;27;20039;-57
2023/05/19 05:30:07;;;;;;;13.27;6.97;;;9.40;99.90;;;;;;5104682;27;20478;-54
2023/05/19 05:32:35;;;;;;;13.98;7.20;;;9.40;99.90;;;;;;5108315;27;20047;-54
2023/05/19 05:35:08;;;;;;;15.25;6.88;;;9.40;99.90;;;;;;5106789;27;20101;-53
2023/05/19 05:37:36;;;;;;;14.05;7.40;;;9.50;99.90;;;;;;5112909;27;20050;-54
2023/05/19 05:40:05;;;;;;;13.05;6.90;;;9.50;99.90;;;;;;5106668;27;20067;-54
2023/05/19 05:42:33;;;;;;;21.85;7.47;;;9.60;99.90;;;;;;5110503;27;20466;-54
2023/05/19 05:45:00;;;;;;;19.65;7.55;;;9.60;99.90;;;;;;5110960;27;20045;-56
2023/05/19 05:47:27;;;;;;;14.43;7.05;;;9.70;99.90;;;;;;5108135;27;20046;-53
2023/05/19 05:49:54;;;;;;;21.17;7.00;;;9.80;99.90;;;;;;5107144;28;20066;-54
2023/05/19 05:52:24;;;;;;;20.17;8.75;;;9.80;99.90;;;;;;5128678;27;20130;-56
2023/05/19 05:54:51;;;;;;;12.05;6.25;;;9.90;99.90;;;;;;5106440;27;20043;-54
2023/05/19 05:57:19;;;;;;;11.32;6.80;;;9.90;99.90;;;;;;5104529;27;20049;-54
2023/05/19 05:59:46;;;;;;;11.50;6.35;;;9.90;99.90;;;;;;5107317;28;20112;-54
2023/05/19 06:02:14;;;;;;;16.58;6.82;;;9.90;99.90;;;;;;5105578;27;20552;-54
2023/05/19 06:04:41;;;;;;;17.63;6.53;;;9.90;99.90;;;;;;5109514;28;20126;-55
2023/05/19 06:07:07;;;;;;;18.48;7.00;;;9.80;99.90;;;;;;5128060;27;20043;-54
2023/05/19 06:09:37;;;;;;;14.20;7.75;;;9.90;99.90;;;;;;5111963;27;20062;-55
2023/05/19 06:12:05;;;;;;;16.33;7.00;;;10.00;99.90;;;;;;5108240;28;20051;-54
2023/05/19 06:14:37;;;;;;;15.35;6.38;;;10.20;99.90;;;;;;5104016;28;20075;-53
2023/05/19 06:17:13;;;;;;;16.75;6.53;;;10.40;99.90;;;;;;5127335;27;20868;-54
2023/05/19 06:19:40;;;;;;;13.50;6.03;;;10.50;99.90;;;;;;5106092;28;20403;-54
2023/05/19 06:22:06;;;;;;;16.40;7.07;;;10.70;99.90;;;;;;5106163;28;20051;-54
2023/05/19 06:24:33;;;;;;;16.75;6.20;;;10.80;99.90;;;;;;5107722;28;20077;-56
2023/05/19 06:27:00;;;;;;;17.58;6.95;;;10.90;99.90;;;;;;5107324;28;20054;-54
2023/05/19 06:29:27;;;;;;;17.13;7.18;;;10.90;99.90;;;;;;5124642;28;20394;-54
2023/05/19 06:31:57;;;;;;;10.30;6.38;;;11.00;99.90;;;;;;5104068;28;20043;-54
2023/05/19 06:34:24;;;;;;;;;;;11.20;99.90;;;;;;5104943;28;20067;-54
2023/05/19 06:36:52;;;;;;;16.40;6.40;;;11.50;99.90;;;;;;5107152;28;19919;-55
2023/05/19 06:39:19;;;;;;;19.63;6.13;;;11.70;99.90;;;;;;5108210;28;20441;-55
2023/05/19 06:41:46;;;;;;;13.98;6.20;;;11.90;99.90;;;;;;5104703;28;20067;-56
2023/05/19 06:44:26;;;;;;;14.13;6.40;;;12.00;99.90;;;;;;5106713;28;20062;-54
2023/05/19 06:46:52;;;;;;;14.25;6.05;;;12.20;99.90;;;;;;5123379;27;20478;-58
2023/05/19 06:49:19;;;;;;;24.05;6.38;;;12.30;99.90;;;;;;5122405;27;20040;-54
2023/05/19 06:51:48;;;;;;;13.23;6.10;;;12.40;99.90;;;;;;5108819;28;20149;-55
2023/05/19 06:54:14;;;;;;;8.63;5.43;;;12.60;99.90;;;;;;5109594;28;20507;-54
2023/05/19 06:56:42;;;;;;;12.00;5.97;;;12.70;99.90;;;;;;5108509;28;20441;-58
2023/05/19 06:59:09;;;;;;;;;;;12.80;99.90;;;;;;5106463;28;20424;-55
2023/05/19 07:01:36;;;;;;;13.85;6.15;;;12.70;99.90;;;;;;5107479;28;20329;-56
2023/05/19 07:04:03;;;;;;;12.73;6.25;;;12.80;99.90;;;;;;5103478;28;20040;-54
2023/05/19 07:06:30;;;;;;;12.98;6.47;;;12.90;99.90;;;;;;5110403;28;20066;-55
2023/05/19 07:08:57;;;;;;;11.68;5.90;;;13.00;99.90;;;;;;5123636;28;20110;-54
2023/05/19 07:11:25;;;;;;;12.80;6.38;;;13.10;99.90;;;;;;5107726;27;20058;-55
2023/05/19 07:13:52;;;;;;;17.38;6.63;;;12.90;99.90;;;;;;5109975;27;20043;-54
2023/05/19 07:16:25;;;;;;;18.45;6.85;;;12.70;99.90;;;;;;5107908;27;20063;-55
2023/05/19 07:18:53;;;;;;;10.38;6.22;;;12.70;99.90;;;;;;5109020;27;20044;-57
2023/05/19 07:21:20;;;;;;;12.20;7.13;;;12.70;99.90;;;;;;5110253;27;20047;-54
2023/05/19 07:23:48;;;;;;;12.75;6.68;;;12.80;99.90;;;;;;5102348;27;20043;-54
2023/05/19 07:26:15;;;;;;;15.75;6.28;;;12.90;99.90;;;;;;5126729;27;20042;-55
2023/05/19 07:28:42;;;;;;;13.38;6.25;;;12.90;99.90;;;;;;5126925;27;20036;-55
2023/05/19 07:31:09;;;;;;;10.93;6.57;;;12.90;99.90;;;;;;5125506;27;20036;-54
2023/05/19 07:33:35;;;;;;;10.48;5.88;;;12.80;99.90;;;;;;5133740;27;20088;-54
2023/05/19 07:36:03;;;;;;;16.25;6.05;;;12.70;99.90;;;;;;5135055;27;20395;-55
2023/05/19 07:38:33;;;;;;;;;;;12.70;99.90;;;;;;5121123;27;20039;-54
2023/05/19 07:41:01;;;;;;;11.40;6.40;;;12.60;99.90;;;;;;5123258;27;19923;-54
2023/05/19 07:43:28;;;;;;;14.30;6.13;;;12.60;99.90;;;;;;5135013;27;20121;-54
2023/05/19 07:45:55;;;;;;;10.35;5.47;;;12.70;99.90;;;;;;5120054;27;20039;-54
2023/05/19 07:48:24;;;;;;;9.07;5.88;;;12.80;99.90;;;;;;5114604;28;20044;-55
2023/05/19 07:50:51;;;;;;;9.25;5.50;;;13.00;99.90;;;;;;5130338;27;20043;-54
2023/05/19 07:53:19;;;;;;;9.85;5.80;;;13.10;99.90;;;;;;5132052;27;20069;-55
2023/05/19 07:55:45;;;;;;;;;;;13.20;99.90;;;;;;5130373;27;20047;-54
2023/05/19 07:58:12;;;;;;;11.77;6.03;;;13.30;99.90;;;;;;5125322;27;19919;-54
2023/05/19 08:00:41;;;;;;;11.60;6.10;;;13.20;99.90;;;;;;5124135;27;20058;-54
2023/05/19 08:03:09;;;;;;;8.40;5.57;;;13.30;99.90;;;;;;5134013;27;20039;-54
2023/05/19 08:05:36;;;;;;;10.98;5.45;;;13.40;99.90;;;;;;5134932;27;20039;-54
2023/05/19 08:08:03;;;;;;;8.77;4.80;;;13.40;99.90;;;;;;5133687;27;20483;-54
2023/05/19 08:10:30;;;;;;;10.57;5.13;;;13.60;99.90;;;;;;5126412;27;20039;-54
2023/05/19 08:12:57;;;;;;;;;;;13.80;99.90;;;;;;5126519;27;20043;-55
2023/05/19 08:15:24;;;;;;;8.65;5.20;;;13.80;99.90;;;;;;5119562;27;19927;-55
2023/05/19 08:17:51;;;;;;;13.15;5.72;;;13.80;99.90;;;;;;5127403;27;20114;-54
2023/05/19 08:20:18;;;;;;;12.52;6.15;;;13.80;99.90;;;;;;5132854;27;20422;-55
2023/05/19 08:22:44;;;;;;;13.75;6.85;;;13.80;99.90;;;;;;5125399;27;20040;-54
2023/05/19 08:25:12;;;;;;;14.88;7.30;;;13.70;99.90;;;;;;5115515;27;20407;-55
2023/05/19 08:27:39;;;;;;;11.23;6.70;;;13.70;99.90;;;;;;5119392;27;20035;-54
2023/05/19 08:30:06;;;;;;;15.00;6.30;;;13.70;99.90;;;;;;5125509;27;20035;-54
2023/05/19 08:32:33;;;;;;;10.60;6.35;;;13.60;99.90;;;;;;5120561;27;20032;-54
2023/05/19 08:35:00;;;;;;;14.77;7.10;;;13.70;99.90;;;;;;5130731;27;20039;-55
2023/05/19 08:37:27;;;;;;;13.18;6.85;;;13.70;99.90;;;;;;5122350;27;20044;-54
2023/05/19 08:39:53;;;;;;;21.20;6.28;;;13.70;99.90;;;;;;5128977;27;20493;-54
2023/05/19 08:42:20;;;;;;;9.95;5.70;;;13.70;99.90;;;;;;5124157;27;20051;-55
2023/05/19 08:44:47;;;;;;;11.63;5.95;;;13.60;99.90;;;;;;5127514;27;20050;-54
2023/05/19 08:47:14;;;;;;;13.80;7.45;;;13.60;99.90;;;;;;5115511;27;20047;-54
2023/05/19 08:49:45;;;;;;;10.68;6.38;;;13.50;99.90;;;;;;5118813;27;20043;-54
2023/05/19 08:52:30;;;;;;;9.80;6.45;;;13.50;99.90;;;;;;5131860;27;20039;-54
2023/05/19 08:55:08;;;;;;;14.50;6.55;;;13.50;99.90;;;;;;5120425;27;20039;-54
2023/05/19 08:57:36;;;;;;;14.57;6.18;;;13.70;99.90;;;;;;5120974;27;20396;-56
2023/05/19 09:00:08;;;;;;;13.52;6.70;;;13.80;99.90;;;;;;5129981;27;20056;-55
2023/05/19 09:02:37;;;;;;;12.68;6.32;;;13.80;99.90;;;;;;5129237;27;20035;-54
2023/05/19 09:05:21;;;;;;;15.23;6.97;;;14.00;99.90;;;;;;5114268;27;20483;-54
2023/05/19 09:07:48;;;;;;;15.27;6.47;;;14.10;99.90;;;;;;5119658;27;20043;-54
2023/05/19 09:10:15;;;;;;;11.90;6.55;;;14.10;99.90;;;;;;5115039;27;20036;-54
2023/05/19 09:12:44;;;;;;;12.20;6.63;;;14.10;99.90;;;;;;5113174;28;20039;-56
2023/05/19 09:15:11;;;;;;;13.52;6.18;;;14.00;99.90;;;;;;5122113;27;20039;-56
2023/05/19 09:17:39;;;;;;;16.50;6.43;;;14.10;99.90;;;;;;5133542;27;20051;-54
2023/05/19 09:20:09;;;;;;;11.93;6.13;;;14.20;99.90;;;;;;5119565;27;20440;-54
2023/05/19 09:22:46;;;;;;;11.15;6.38;;;14.30;99.90;;;;;;5112180;28;20057;-54
2023/05/19 09:25:22;;;;;;;11.85;6.25;;;14.20;99.90;;;;;;5130515;27;20507;-55
2023/05/19 09:27:49;;;;;;;9.50;5.85;;;14.20;99.90;;;;;;5122794;27;20494;-54
2023/05/19 09:30:17;;;;;;;9.80;6.43;;;14.30;99.90;;;;;;5131393;27;20031;-54
2023/05/19 09:32:44;;;;;;;11.25;5.97;;;14.50;99.90;;;;;;5127421;27;20488;-54
2023/05/19 09:35:15;;;;;;;12.27;6.65;;;14.50;99.90;;;;;;5111847;28;20046;-54
2023/05/19 09:37:42;;;;;;;9.10;5.15;;;14.40;99.90;;;;;;5126348;27;20050;-54
2023/05/19 09:40:12;;;;;;;10.98;5.90;;;14.40;99.90;;;;;;5133198;27;20237;-55
2023/05/19 09:42:40;;;;;;;8.63;5.53;;;14.40;99.90;;;;;;5108533;28;20062;-54
2023/05/19 09:45:08;;;;;;;11.18;5.78;;;14.40;99.90;;;;;;5120911;27;20051;-54
2023/05/19 09:47:37;;;;;;;10.23;5.40;;;14.30;99.90;;;;;;5128363;27;20048;-55
2023/05/19 09:50:11;;;;;;;10.10;5.20;;;14.30;99.90;;;;;;5112531;28;20038;-55
2023/05/19 09:52:39;;;;;;;12.13;5.32;;;14.30;99.90;;;;;;5120155;27;20791;-54
2023/05/19 09:55:10;;;;;;;9.50;5.78;;;14.40;99.90;;;;;;5120325;27;20365;-55
2023/05/19 09:57:38;;;;;;;9.38;5.30;;;14.50;99.90;;;;;;5119515;27;20403;-55
2023/05/19 10:02:42;;;;;;;7.93;5.30;;;14.70;99.90;;;;;;5132198;27;20035;-57
2023/05/19 10:05:18;;;;;;;6.57;5.03;;;15.00;99.90;;;;;;5132351;27;20118;-54
2023/05/19 10:07:48;;;;;;;9.20;5.10;;;15.40;99.90;;;;;;5128379;27;20046;-55
2023/05/19 10:10:15;;;;;;;8.32;5.38;;;15.50;99.90;;;;;;5125645;27;20043;-54
2023/05/19 10:12:42;;;;;;;11.32;5.43;;;15.60;99.90;;;;;;5120186;27;20047;-54
2023/05/19 10:15:17;;;;;;;11.57;5.85;;;15.70;99.90;;;;;;5127995;27;20039;-55
2023/05/19 10:17:48;;;;;;;7.32;5.25;;;15.70;99.90;;;;;;5115074;27;20043;-56
2023/05/19 10:20:16;;;;;;;10.07;5.68;;;15.50;99.90;;;;;;5127531;27;20087;-54
2023/05/19 10:22:45;;;;;;;8.70;5.63;;;15.30;99.90;;;;;;5111869;27;20035;-54
2023/05/19 10:25:18;;;;;;;8.15;5.22;;;15.10;99.90;;;;;;5118972;27;20040;-55
2023/05/19 10:27:55;;;;;;;9.70;5.05;;;14.90;99.90;;;;;;5110630;28;20032;-54
2023/05/19 10:30:28;;;;;;;9.52;5.93;;;15.00;99.90;;;;;;5119644;28;20053;-56
2023/05/19 10:32:56;;;;;;;8.32;4.85;;;15.00;99.90;;;;;;5116067;27;20484;-54
2023/05/19 10:35:22;;;;;;;10.35;5.68;;;15.00;99.90;;;;;;5110557;27;20043;-54
2023/05/19 10:38:08;;;;;;;11.25;5.63;;;15.00;99.90;;;;;;5119609;27;20051;-55
2023/05/19 10:40:59;;;;;;;8.45;5.25;;;15.00;99.90;;;;;;5115008;28;20401;-54
2023/05/19 10:43:37;;;;;;;12.82;5.60;;;15.00;99.90;;;;;;5110830;28;20044;-56
2023/05/19 10:46:05;;;;;;;10.30;5.43;;;15.00;99.90;;;;;;5112842;27;20036;-54
2023/05/19 10:48:36;;;;;;;8.27;5.07;;;15.10;99.90;;;;;;5114858;27;20035;-57
2023/05/19 10:51:03;;;;;;;8.32;5.35;;;15.30;99.90;;;;;;5115404;27;20036;-54
2023/05/19 10:53:33;;;;;;;10.18;5.30;;;15.40;99.90;;;;;;5117341;27;20039;-54
2023/05/19 10:56:02;;;;;;;8.75;5.57;;;15.50;99.90;;;;;;5128653;27;20040;-54
2023/05/19 10:58:42;;;;;;;7.07;4.82;;;15.50;99.90;;;;;;5115041;27;20138;-54
2023/05/19 11:01:13;;;;;;;12.20;5.53;;;15.50;99.90;;;;;;5132155;27;20035;-54
2023/05/19 11:03:51;;;;;;;13.43;6.38;;;15.80;99.90;;;;;;5121977;27;20122;-55
2023/05/19 11:06:20;;;;;;;10.07;5.60;;;15.90;99.90;;;;;;5115502;27;20501;-54
2023/05/19 11:08:59;;;;;;;7.78;4.90;;;15.90;99.90;;;;;;5114461;27;20042;-54
2023/05/19 11:11:46;;;;;;;6.88;4.95;;;15.90;99.90;;;;;;5114593;27;20040;-54
2023/05/19 11:14:15;;;;;;;9.98;5.63;;;16.00;99.90;;;;;;5122536;27;20057;-56
2023/05/19 11:16:46;;;;;;;10.90;5.55;;;16.00;99.90;;;;;;5128056;27;20043;-55
2023/05/19 11:19:30;;;;;;;9.20;5.70;;;15.90;99.90;;;;;;5108940;27;20062;-54
2023/05/19 11:22:10;;;;;;;11.27;5.63;;;15.90;99.90;;;;;;5129816;27;20043;-58
2023/05/19 11:24:40;;;;;;;14.27;5.88;;;15.80;99.90;;;;;;5114468;27;20038;-55
2023/05/19 11:27:31;;;;;;;9.23;5.55;;;15.90;99.90;;;;;;5114358;27;20513;-54
2023/05/19 11:29:58;;;;;;;8.73;4.90;;;15.90;99.90;;;;;;5114523;27;20046;-54
2023/05/19 11:32:32;;;;;;;8.00;5.07;;;15.90;99.90;;;;;;5114039;27;20385;-54
2023/05/19 11:34:59;;;;;;;9.38;5.35;;;15.90;99.90;;;;;;5114469;28;20476;-56
2023/05/19 11:37:30;;;;;;;9.73;5.45;;;16.00;99.90;;;;;;5116203;27;20058;-54
2023/05/19 11:40:00;;;;;;;9.00;5.40;;;15.90;99.90;;;;;;5131149;27;20245;-55
2023/05/19 11:42:26;;;;;;;9.23;5.70;;;15.80;99.90;;;;;;5122106;27;20040;-56
2023/05/19 11:44:56;;;;;;;9.73;5.82;;;15.80;99.90;;;;;;5119871;27;20475;-56
2023/05/19 11:47:23;;;;;;;9.85;5.97;;;15.90;99.90;;;;;;5115217;27;20050;-54
2023/05/19 11:49:53;;;;;;;9.82;5.88;;;16.00;99.90;;;;;;5117241;27;20038;-54
2023/05/19 11:52:22;;;;;;;8.38;5.72;;;16.10;99.90;;;;;;5113112;27;20054;-54
2023/05/19 11:54:49;;;;;;;9.98;5.63;;;16.20;99.90;;;;;;5117349;27;20439;-54
2023/05/19 11:57:16;;;;;;;12.95;6.35;;;16.20;99.90;;;;;;5126882;27;20036;-54
2023/05/19 11:59:44;;;;;;;;;;;16.20;99.90;;;;;;5121571;27;20027;-54
2023/05/19 12:02:37;;;;;;;10.50;5.47;;;16.60;99.90;;;;;;5121277;27;20248;-55
2023/05/19 12:05:05;;;;;;;10.77;5.68;;;16.70;99.90;;;;;;5109182;27;20089;-54
2023/05/19 12:07:31;;;;;;;9.05;5.95;;;16.80;99.90;;;;;;5112675;27;20488;-54
2023/05/19 12:09:59;;;;;;;11.77;6.32;;;17.10;99.90;;;;;;5113936;27;20043;-55
2023/05/19 12:12:28;;;;;;;7.82;5.82;;;17.40;99.90;;;;;;5112405;27;20048;-54
2023/05/19 12:14:55;;;;;;;8.70;6.13;;;17.50;99.90;;;;;;5126788;27;20035;-55
2023/05/19 12:17:22;;;;;;;;;;;17.40;99.90;;;;;;5122619;27;20048;-55
2023/05/19 12:19:50;;;;;;;7.88;5.55;;;17.30;99.90;;;;;;5113786;27;19963;-54
2023/05/19 12:22:17;;;;;;;;;;;17.10;99.90;;;;;;5113511;27;20042;-55
2023/05/19 12:24:45;;;;;;;12.07;5.82;;;17.00;99.90;;;;;;5125899;27;19923;-55
2023/05/19 12:27:15;;;;;;;8.45;6.00;;;16.90;99.90;;;;;;5125886;27;20510;-55
2023/05/19 12:29:42;;;;;;;10.27;6.28;;;16.90;99.90;;;;;;5121437;27;20067;-54
2023/05/19 12:32:09;;;;;;;8.35;6.13;;;17.00;99.90;;;;;;5129558;27;20399;-54
2023/05/19 12:34:37;;;;;;;9.52;6.05;;;17.20;99.90;;;;;;5112976;27;20074;-56
2023/05/19 12:37:05;;;;;;;9.43;6.57;;;17.20;99.90;;;;;;5113512;27;20464;-55
2023/05/19 12:39:32;;;;;;;7.72;5.90;;;17.10;99.90;;;;;;5112888;27;20046;-54
2023/05/19 12:42:06;;;;;;;9.85;6.30;;;17.10;99.90;;;;;;5113141;27;20042;-55
2023/05/19 12:44:38;;;;;;;9.13;6.20;;;17.10;99.90;;;;;;5132183;27;20438;-55
2023/05/19 12:47:05;;;;;;;9.43;6.53;;;17.20;99.90;;;;;;5117989;27;20304;-55
2023/05/19 12:49:33;;;;;;;10.35;5.80;;;17.10;99.90;;;;;;5123739;27;20144;-55
2023/05/19 12:52:02;;;;;;;10.75;6.75;;;16.90;99.90;;;;;;5126859;27;20035;-54
2023/05/19 12:54:34;;;;;;;9.02;6.40;;;16.70;99.90;;;;;;5131954;27;20047;-54
2023/05/19 12:57:04;;;;;;;9.00;6.10;;;16.60;99.90;;;;;;5130213;27;20544;-54
2023/05/19 12:59:33;;;;;;;16.50;6.63;;;16.50;99.90;;;;;;5132060;27;20063;-54
2023/05/19 13:02:05;;;;;;;8.88;5.80;;;16.40;99.90;;;;;;5117545;27;20043;-54
2023/05/19 13:04:32;;;;;;;7.57;5.47;;;16.20;99.90;;;;;;5120961;27;20054;-55